sensor_id;sensor_type;location;lat;lon;timestamp;pressure;altitude;pressure_sealevel;temperature;humidity
20023;BME280;10172;42.054;24.546;2023-03-07T00:01:42;97474.84;;;8.39;100.00
20023;BME280;10172;42.054;24.546;2023-03-07T00:04:07;97492.56;;;8.75;99.05
20023;BME280;10172;42.054;24.546;2023-03-07T00:06:33;97482.88;;;8.38;99.53
20023;BME280;10172;42.054;24.546;2023-03-07T00:09:00;97490.56;;;8.66;100.00
20023;BME280;10172;42.054;24.546;2023-03-07T00:11:26;97481.66;;;7.43;100.00
20023;BME280;10172;42.054;24.546;2023-03-07T00:13:52;97499.53;;;7.52;100.00
20023;BME280;10172;42.054;24.546;2023-03-07T00:16:20;97470.66;;;7.99;100.00
20023;BME280;10172;42.054;24.546;2023-03-07T00:18:46;97489.16;;;8.24;100.00
20023;BME280;10172;42.054;24.546;2023-03-07T00:21:13;97486.38;;;6.86;100.00
20023;BME280;10172;42.054;24.546;2023-03-07T00:23:41;97502.84;;;7.93;100.00
20023;BME280;10172;42.054;24.546;2023-03-07T00:26:16;97495.75;;;8.06;100.00
20023;BME280;10172;42.054;24.546;2023-03-07T00:28:42;97476.09;;;8.47;100.00
20023;BME280;10172;42.054;24.546;2023-03-07T00:31:10;97481.88;;;7.90;100.00
20023;BME280;10172;42.054;24.546;2023-03-07T00:33:36;97442.06;;;7.79;100.00
20023;BME280;10172;42.054;24.546;2023-03-07T00:36:16;97450.28;;;8.37;100.00
20023;BME280;10172;42.054;24.546;2023-03-07T00:38:43;97464.56;;;5.72;100.00
20023;BME280;10172;42.054;24.546;2023-03-07T00:41:11;97447.91;;;6.00;100.00
20023;BME280;10172;42.054;24.546;2023-03-07T00:43:38;97450.44;;;6.01;100.00
20023;BME280;10172;42.054;24.546;2023-03-07T00:46:04;97443.56;;;6.54;100.00
20023;BME280;10172;42.054;24.546;2023-03-07T00:48:32;97426.19;;;7.29;100.00
20023;BME280;10172;42.054;24.546;2023-03-07T00:50:58;97444.03;;;8.01;100.00
20023;BME280;10172;42.054;24.546;2023-03-07T00:53:23;97453.72;;;7.89;100.00
20023;BME280;10172;42.054;24.546;2023-03-07T00:55:57;97468.22;;;6.67;100.00
20023;BME280;10172;42.054;24.546;2023-03-07T00:58:24;97449.91;;;6.91;100.00
20023;BME280;10172;42.054;24.546;2023-03-07T01:00:50;97458.44;;;6.14;100.00
20023;BME280;10172;42.054;24.546;2023-03-07T01:03:15;97477.81;;;7.21;100.00
20023;BME280;10172;42.054;24.546;2023-03-07T01:05:41;97467.56;;;6.23;100.00
20023;BME280;10172;42.054;24.546;2023-03-07T01:08:06;97468.63;;;7.27;100.00
20023;BME280;10172;42.054;24.546;2023-03-07T01:10:32;97453.50;;;7.67;100.00
20023;BME280;10172;42.054;24.546;2023-03-07T01:12:58;97474.03;;;7.51;100.00
20023;BME280;10172;42.054;24.546;2023-03-07T01:15:24;97452.81;;;6.47;100.00
20023;BME280;10172;42.054;24.546;2023-03-07T01:17:50;97477.84;;;6.68;100.00
20023;BME280;10172;42.054;24.546;2023-03-07T01:20:16;97457.59;;;6.81;100.00
20023;BME280;10172;42.054;24.546;2023-03-07T01:22:41;97441.63;;;5.30;100.00
20023;BME280;10172;42.054;24.546;2023-03-07T01:25:07;97449.66;;;5.57;100.00
20023;BME280;10172;42.054;24.546;2023-03-07T01:27:32;97445.06;;;4.73;100.00
20023;BME280;10172;42.054;24.546;2023-03-07T01:29:58;97449.25;;;4.91;100.00
20023;BME280;10172;42.054;24.546;2023-03-07T01:32:23;97448.53;;;5.47;100.00
20023;BME280;10172;42.054;24.546;2023-03-07T01:34:49;97442.69;;;5.56;100.00
20023;BME280;10172;42.054;24.546;2023-03-07T01:37:14;97447.72;;;5.89;100.00
20023;BME280;10172;42.054;24.546;2023-03-07T01:39:39;97436.75;;;6.50;100.00
20023;BME280;10172;42.054;24.546;2023-03-07T01:42:05;97455.25;;;6.50;100.00
20023;BME280;10172;42.054;24.546;2023-03-07T01:44:30;97442.53;;;6.69;100.00
20023;BME280;10172;42.054;24.546;2023-03-07T01:46:58;97448.19;;;6.50;100.00
20023;BME280;10172;42.054;24.546;2023-03-07T01:49:29;97456.88;;;6.65;100.00
20023;BME280;10172;42.054;24.546;2023-03-07T01:54:43;97451.56;;;6.52;100.00
20023;BME280;10172;42.054;24.546;2023-03-07T01:57:23;97427.75;;;6.79;100.00
20023;BME280;10172;42.054;24.546;2023-03-07T01:59:54;97432.34;;;6.90;100.00
20023;BME280;10172;42.054;24.546;2023-03-07T02:02:21;97411.03;;;5.70;100.00
20023;BME280;10172;42.054;24.546;2023-03-07T02:07:19;97432.63;;;6.46;100.00
20023;BME280;10172;42.054;24.546;2023-03-07T02:09:46;97431.84;;;6.03;100.00
20023;BME280;10172;42.054;24.546;2023-03-07T02:12:14;97426.00;;;6.53;100.00
20023;BME280;10172;42.054;24.546;2023-03-07T02:14:42;97458.69;;;6.38;100.00
20023;BME280;10172;42.054;24.546;2023-03-07T02:17:10;97428.22;;;6.86;100.00
20023;BME280;10172;42.054;24.546;2023-03-07T02:22:29;97443.97;;;7.27;100.00
20023;BME280;10172;42.054;24.546;2023-03-07T02:25:02;97440.88;;;7.33;100.00
20023;BME280;10172;42.054;24.546;2023-03-07T02:27:32;97418.59;;;6.58;100.00
20023;BME280;10172;42.054;24.546;2023-03-07T02:29:58;97430.81;;;5.63;100.00
20023;BME280;10172;42.054;24.546;2023-03-07T02:32:24;97413.66;;;5.42;100.00
20023;BME280;10172;42.054;24.546;2023-03-07T02:34:49;97421.78;;;5.67;100.00
20023;BME280;10172;42.054;24.546;2023-03-07T02:39:46;97425.94;;;5.99;100.00
20023;BME280;10172;42.054;24.546;2023-03-07T02:42:19;97433.66;;;6.03;100.00
20023;BME280;10172;42.054;24.546;2023-03-07T02:44:46;97430.25;;;6.68;100.00
20023;BME280;10172;42.054;24.546;2023-03-07T02:47:19;97438.78;;;6.86;100.00
20023;BME280;10172;42.054;24.546;2023-03-07T02:49:45;97425.16;;;6.12;100.00
20023;BME280;10172;42.054;24.546;2023-03-07T02:52:10;97406.44;;;6.29;100.00
20023;BME280;10172;42.054;24.546;2023-03-07T02:54:36;97423.56;;;6.36;100.00
20023;BME280;10172;42.054;24.546;2023-03-07T02:57:02;97427.06;;;5.67;100.00
20023;BME280;10172;42.054;24.546;2023-03-07T02:59:28;97419.13;;;5.39;100.00
20023;BME280;10172;42.054;24.546;2023-03-07T03:01:54;97407.66;;;5.54;100.00
20023;BME280;10172;42.054;24.546;2023-03-07T03:04:20;97418.00;;;5.71;100.00
20023;BME280;10172;42.054;24.546;2023-03-07T03:06:45;97435.00;;;6.63;100.00
20023;BME280;10172;42.054;24.546;2023-03-07T03:09:10;97429.13;;;5.90;100.00
20023;BME280;10172;42.054;24.546;2023-03-07T03:11:36;97424.19;;;6.27;100.00
20023;BME280;10172;42.054;24.546;2023-03-07T03:14:01;97405.94;;;4.51;100.00
20023;BME280;10172;42.054;24.546;2023-03-07T03:16:27;97423.59;;;4.79;100.00
20023;BME280;10172;42.054;24.546;2023-03-07T03:18:52;97361.28;;;5.36;100.00
20023;BME280;10172;42.054;24.546;2023-03-07T03:21:17;97395.53;;;4.94;100.00
20023;BME280;10172;42.054;24.546;2023-03-07T03:23:43;97412.53;;;5.74;100.00
20023;BME280;10172;42.054;24.546;2023-03-07T03:26:09;97403.44;;;6.21;100.00
20023;BME280;10172;42.054;24.546;2023-03-07T03:28:37;97422.50;;;6.52;100.00
20023;BME280;10172;42.054;24.546;2023-03-07T03:31:07;97439.16;;;6.67;100.00
20023;BME280;10172;42.054;24.546;2023-03-07T03:33:34;97414.56;;;6.26;100.00
20023;BME280;10172;42.054;24.546;2023-03-07T03:36:06;97417.38;;;6.37;100.00
20023;BME280;10172;42.054;24.546;2023-03-07T03:38:31;97420.75;;;7.05;100.00
20023;BME280;10172;42.054;24.546;2023-03-07T03:40:57;97416.44;;;7.42;100.00
20023;BME280;10172;42.054;24.546;2023-03-07T03:43:23;97413.03;;;7.14;100.00
20023;BME280;10172;42.054;24.546;2023-03-07T03:45:56;97437.41;;;6.13;100.00
20023;BME280;10172;42.054;24.546;2023-03-07T03:48:21;97426.34;;;6.34;100.00
20023;BME280;10172;42.054;24.546;2023-03-07T03:50:47;97446.03;;;7.09;100.00
20023;BME280;10172;42.054;24.546;2023-03-07T03:53:12;97448.88;;;6.67;100.00
20023;BME280;10172;42.054;24.546;2023-03-07T03:55:37;97432.34;;;5.95;100.00
20023;BME280;10172;42.054;24.546;2023-03-07T03:58:03;97440.47;;;6.33;100.00
20023;BME280;10172;42.054;24.546;2023-03-07T04:00:29;97444.66;;;6.09;100.00
20023;BME280;10172;42.054;24.546;2023-03-07T04:02:55;97432.69;;;5.47;100.00
20023;BME280;10172;42.054;24.546;2023-03-07T04:05:20;97438.97;;;4.41;100.00
20023;BME280;10172;42.054;24.546;2023-03-07T04:07:46;97429.84;;;4.78;100.00
20023;BME280;10172;42.054;24.546;2023-03-07T04:10:12;97439.31;;;5.54;100.00
20023;BME280;10172;42.054;24.546;2023-03-07T04:12:37;97446.13;;;4.39;100.00
20023;BME280;10172;42.054;24.546;2023-03-07T04:15:04;97442.56;;;4.40;100.00
20023;BME280;10172;42.054;24.546;2023-03-07T04:17:30;97446.47;;;4.78;100.00
20023;BME280;10172;42.054;24.546;2023-03-07T04:19:55;97440.34;;;4.48;100.00
20023;BME280;10172;42.054;24.546;2023-03-07T04:22:21;97453.31;;;4.97;100.00
20023;BME280;10172;42.054;24.546;2023-03-07T04:24:46;97434.22;;;5.79;100.00
20023;BME280;10172;42.054;24.546;2023-03-07T04:27:11;97451.53;;;6.26;100.00
20023;BME280;10172;42.054;24.546;2023-03-07T04:29:37;97415.75;;;4.18;100.00
20023;BME280;10172;42.054;24.546;2023-03-07T04:32:02;97422.09;;;4.45;100.00
20023;BME280;10172;42.054;24.546;2023-03-07T04:34:28;97452.47;;;4.66;100.00
20023;BME280;10172;42.054;24.546;2023-03-07T04:36:53;97438.72;;;4.91;100.00
20023;BME280;10172;42.054;24.546;2023-03-07T04:39:18;97429.66;;;4.04;100.00
20023;BME280;10172;42.054;24.546;2023-03-07T04:41:44;97411.66;;;3.97;100.00
20023;BME280;10172;42.054;24.546;2023-03-07T04:44:09;97422.34;;;4.70;100.00
20023;BME280;10172;42.054;24.546;2023-03-07T04:46:35;97448.84;;;3.91;100.00
20023;BME280;10172;42.054;24.546;2023-03-07T04:49:00;97430.84;;;3.99;100.00
20023;BME280;10172;42.054;24.546;2023-03-07T04:51:26;97434.63;;;3.29;100.00
20023;BME280;10172;42.054;24.546;2023-03-07T04:53:51;97451.56;;;4.05;100.00
20023;BME280;10172;42.054;24.546;2023-03-07T04:56:16;97438.59;;;4.63;100.00
20023;BME280;10172;42.054;24.546;2023-03-07T04:58:43;97427.09;;;4.34;100.00
20023;BME280;10172;42.054;24.546;2023-03-07T05:01:09;97439.00;;;4.10;100.00
20023;BME280;10172;42.054;24.546;2023-03-07T05:03:34;97444.66;;;3.87;100.00
20023;BME280;10172;42.054;24.546;2023-03-07T05:06:01;97462.91;;;3.90;100.00
20023;BME280;10172;42.054;24.546;2023-03-07T05:08:28;97451.56;;;4.20;100.00
20023;BME280;10172;42.054;24.546;2023-03-07T05:10:53;97469.81;;;4.55;100.00
20023;BME280;10172;42.054;24.546;2023-03-07T05:13:19;97438.75;;;4.14;100.00
20023;BME280;10172;42.054;24.546;2023-03-07T05:15:53;97448.16;;;5.09;100.00
20023;BME280;10172;42.054;24.546;2023-03-07T05:18:19;97441.44;;;3.82;100.00
20023;BME280;10172;42.054;24.546;2023-03-07T05:20:44;97472.19;;;4.59;100.00
20023;BME280;10172;42.054;24.546;2023-03-07T05:23:10;97455.47;;;4.90;100.00
20023;BME280;10172;42.054;24.546;2023-03-07T05:25:35;97442.97;;;4.48;100.00
20023;BME280;10172;42.054;24.546;2023-03-07T05:28:01;97468.72;;;4.43;100.00
20023;BME280;10172;42.054;24.546;2023-03-07T05:30:26;97471.09;;;4.32;100.00
20023;BME280;10172;42.054;24.546;2023-03-07T05:32:51;97436.53;;;3.91;100.00
20023;BME280;10172;42.054;24.546;2023-03-07T05:35:17;97460.03;;;4.41;100.00
20023;BME280;10172;42.054;24.546;2023-03-07T05:37:43;97459.03;;;4.59;100.00
20023;BME280;10172;42.054;24.546;2023-03-07T05:40:09;97465.53;;;4.98;100.00
20023;BME280;10172;42.054;24.546;2023-03-07T05:42:35;97449.66;;;4.69;100.00
20023;BME280;10172;42.054;24.546;2023-03-07T05:45:03;97473.88;;;5.64;100.00
20023;BME280;10172;42.054;24.546;2023-03-07T05:47:28;97483.59;;;6.34;100.00
20023;BME280;10172;42.054;24.546;2023-03-07T05:49:54;97478.16;;;7.03;100.00
20023;BME280;10172;42.054;24.546;2023-03-07T05:52:19;97472.53;;;7.47;100.00
20023;BME280;10172;42.054;24.546;2023-03-07T05:54:45;97474.03;;;7.76;100.00
20023;BME280;10172;42.054;24.546;2023-03-07T05:57:10;97475.19;;;6.68;100.00
20023;BME280;10172;42.054;24.546;2023-03-07T05:59:36;97483.19;;;6.81;100.00
20023;BME280;10172;42.054;24.546;2023-03-07T06:02:01;97484.09;;;7.06;100.00
20023;BME280;10172;42.054;24.546;2023-03-07T06:04:26;97476.38;;;7.55;100.00
20023;BME280;10172;42.054;24.546;2023-03-07T06:06:52;97483.16;;;7.59;100.00
20023;BME280;10172;42.054;24.546;2023-03-07T06:09:17;97467.66;;;7.41;100.00
20023;BME280;10172;42.054;24.546;2023-03-07T06:11:43;97465.16;;;5.91;100.00
20023;BME280;10172;42.054;24.546;2023-03-07T06:14:08;97483.91;;;7.09;100.00
20023;BME280;10172;42.054;24.546;2023-03-07T06:16:34;97471.59;;;7.48;100.00
20023;BME280;10172;42.054;24.546;2023-03-07T06:18:59;97473.06;;;7.90;100.00
20023;BME280;10172;42.054;24.546;2023-03-07T06:21:24;97479.38;;;8.25;100.00
20023;BME280;10172;42.054;24.546;2023-03-07T06:23:50;97481.59;;;8.43;100.00
20023;BME280;10172;42.054;24.546;2023-03-07T06:26:15;97491.13;;;8.59;100.00
20023;BME280;10172;42.054;24.546;2023-03-07T06:28:41;97490.97;;;8.96;100.00
20023;BME280;10172;42.054;24.546;2023-03-07T06:31:14;97509.63;;;9.08;100.00
20023;BME280;10172;42.054;24.546;2023-03-07T06:33:39;97499.44;;;9.01;100.00
20023;BME280;10172;42.054;24.546;2023-03-07T06:36:09;97512.53;;;9.16;100.00
20023;BME280;10172;42.054;24.546;2023-03-07T06:38:35;97509.41;;;9.45;100.00
20023;BME280;10172;42.054;24.546;2023-03-07T06:41:01;97513.28;;;8.94;100.00
20023;BME280;10172;42.054;24.546;2023-03-07T06:43:27;97507.28;;;7.93;100.00
20023;BME280;10172;42.054;24.546;2023-03-07T06:45:52;97515.00;;;8.82;100.00
20023;BME280;10172;42.054;24.546;2023-03-07T06:48:18;97502.22;;;9.24;100.00
20023;BME280;10172;42.054;24.546;2023-03-07T06:50:44;97507.16;;;9.28;100.00
20023;BME280;10172;42.054;24.546;2023-03-07T06:53:09;97527.97;;;9.80;100.00
20023;BME280;10172;42.054;24.546;2023-03-07T06:55:35;97531.63;;;9.55;100.00
20023;BME280;10172;42.054;24.546;2023-03-07T06:58:00;97520.03;;;8.74;100.00
20023;BME280;10172;42.054;24.546;2023-03-07T07:00:26;97517.50;;;9.20;100.00
20023;BME280;10172;42.054;24.546;2023-03-07T07:02:51;97517.41;;;9.56;100.00
20023;BME280;10172;42.054;24.546;2023-03-07T07:05:17;97501.28;;;9.82;100.00
20023;BME280;10172;42.054;24.546;2023-03-07T07:07:42;97510.28;;;10.58;100.00
20023;BME280;10172;42.054;24.546;2023-03-07T07:10:08;97509.47;;;11.01;97.10
20023;BME280;10172;42.054;24.546;2023-03-07T07:12:34;97518.47;;;11.31;94.90
20023;BME280;10172;42.054;24.546;2023-03-07T07:14:59;97524.00;;;11.08;93.64
20023;BME280;10172;42.054;24.546;2023-03-07T07:17:28;97529.53;;;10.40;97.68
20023;BME280;10172;42.054;24.546;2023-03-07T07:19:53;97513.03;;;10.01;100.00
20023;BME280;10172;42.054;24.546;2023-03-07T07:22:19;97515.38;;;10.28;100.00
20023;BME280;10172;42.054;24.546;2023-03-07T07:24:44;97517.81;;;10.42;100.00
20023;BME280;10172;42.054;24.546;2023-03-07T07:27:10;97517.25;;;10.81;99.01
20023;BME280;10172;42.054;24.546;2023-03-07T07:29:35;97524.06;;;9.62;100.00
20023;BME280;10172;42.054;24.546;2023-03-07T07:32:01;97531.16;;;9.03;100.00
20023;BME280;10172;42.054;24.546;2023-03-07T07:34:27;97533.97;;;10.17;100.00
20023;BME280;10172;42.054;24.546;2023-03-07T07:36:52;97528.53;;;9.61;100.00
20023;BME280;10172;42.054;24.546;2023-03-07T07:39:18;97532.47;;;9.91;100.00
20023;BME280;10172;42.054;24.546;2023-03-07T07:41:44;97516.78;;;9.53;100.00
20023;BME280;10172;42.054;24.546;2023-03-07T07:44:10;97517.66;;;10.10;100.00
20023;BME280;10172;42.054;24.546;2023-03-07T07:46:36;97533.03;;;10.51;100.00
20023;BME280;10172;42.054;24.546;2023-03-07T07:49:01;97513.53;;;9.60;100.00
20023;BME280;10172;42.054;24.546;2023-03-07T07:51:27;97521.88;;;8.85;100.00
20023;BME280;10172;42.054;24.546;2023-03-07T07:53:52;97525.59;;;9.53;100.00
20023;BME280;10172;42.054;24.546;2023-03-07T07:56:18;97524.81;;;10.43;100.00
20023;BME280;10172;42.054;24.546;2023-03-07T07:58:43;97513.09;;;11.11;100.00
20023;BME280;10172;42.054;24.546;2023-03-07T08:01:19;97526.41;;;11.43;96.00
20023;BME280;10172;42.054;24.546;2023-03-07T08:03:46;97519.81;;;11.26;96.29
20023;BME280;10172;42.054;24.546;2023-03-07T08:06:12;97505.69;;;10.38;100.00
20023;BME280;10172;42.054;24.546;2023-03-07T08:08:41;97513.22;;;11.41;99.28
20023;BME280;10172;42.054;24.546;2023-03-07T08:11:07;97508.25;;;11.16;100.00
20023;BME280;10172;42.054;24.546;2023-03-07T08:13:32;97514.00;;;9.54;100.00
20023;BME280;10172;42.054;24.546;2023-03-07T08:15:58;97516.13;;;9.73;100.00
20023;BME280;10172;42.054;24.546;2023-03-07T08:18:23;97517.56;;;9.31;100.00
20023;BME280;10172;42.054;24.546;2023-03-07T08:20:48;97516.38;;;9.46;100.00
20023;BME280;10172;42.054;24.546;2023-03-07T08:23:14;97508.25;;;10.62;100.00
20023;BME280;10172;42.054;24.546;2023-03-07T08:25:39;97512.53;;;11.28;100.00
20023;BME280;10172;42.054;24.546;2023-03-07T08:28:05;97519.44;;;12.24;93.50
20023;BME280;10172;42.054;24.546;2023-03-07T08:30:33;97515.63;;;11.96;92.85
20023;BME280;10172;42.054;24.546;2023-03-07T08:32:59;97512.78;;;12.39;90.61
20023;BME280;10172;42.054;24.546;2023-03-07T08:35:26;97534.06;;;13.00;88.30
20023;BME280;10172;42.054;24.546;2023-03-07T08:37:56;97524.00;;;11.08;96.99
20023;BME280;10172;42.054;24.546;2023-03-07T08:40:24;97519.81;;;11.26;99.87
20023;BME280;10172;42.054;24.546;2023-03-07T08:42:50;97526.59;;;11.30;96.23
20023;BME280;10172;42.054;24.546;2023-03-07T08:45:16;97530.44;;;11.58;96.41
20023;BME280;10172;42.054;24.546;2023-03-07T08:47:41;97516.97;;;12.72;93.21
20023;BME280;10172;42.054;24.546;2023-03-07T08:50:08;97506.03;;;13.44;87.79
20023;BME280;10172;42.054;24.546;2023-03-07T08:52:34;97512.50;;;13.89;83.48
20023;BME280;10172;42.054;24.546;2023-03-07T08:54:59;97509.09;;;13.97;80.50
20023;BME280;10172;42.054;24.546;2023-03-07T08:57:24;97510.94;;;13.77;81.67
20023;BME280;10172;42.054;24.546;2023-03-07T08:59:50;97518.34;;;14.21;80.18
20023;BME280;10172;42.054;24.546;2023-03-07T09:02:16;97511.78;;;13.97;79.42
20023;BME280;10172;42.054;24.546;2023-03-07T09:04:41;97507.63;;;14.41;79.82
20023;BME280;10172;42.054;24.546;2023-03-07T09:07:07;97515.97;;;14.92;75.99
20023;BME280;10172;42.054;24.546;2023-03-07T09:09:32;97511.38;;;13.63;80.89
20023;BME280;10172;42.054;24.546;2023-03-07T09:11:58;97492.97;;;12.72;85.32
20023;BME280;10172;42.054;24.546;2023-03-07T09:14:23;97501.81;;;13.60;83.42
20023;BME280;10172;42.054;24.546;2023-03-07T09:16:49;97491.31;;;14.24;81.43
20023;BME280;10172;42.054;24.546;2023-03-07T09:19:14;97501.59;;;14.66;78.96
20023;BME280;10172;42.054;24.546;2023-03-07T09:21:40;97497.06;;;14.93;78.07
20023;BME280;10172;42.054;24.546;2023-03-07T09:24:06;97507.34;;;15.61;76.10
20023;BME280;10172;42.054;24.546;2023-03-07T09:26:31;97511.53;;;15.45;73.08
20023;BME280;10172;42.054;24.546;2023-03-07T09:28:56;97497.59;;;15.42;74.31
20023;BME280;10172;42.054;24.546;2023-03-07T09:31:22;97502.06;;;15.86;72.21
20023;BME280;10172;42.054;24.546;2023-03-07T09:33:47;97503.41;;;15.37;73.81
20023;BME280;10172;42.054;24.546;2023-03-07T09:36:14;97509.69;;;14.83;77.15
20023;BME280;10172;42.054;24.546;2023-03-07T09:38:39;97508.47;;;15.40;76.47
20023;BME280;10172;42.054;24.546;2023-03-07T09:49:45;97497.75;;;15.40;76.23
20023;BME280;10172;42.054;24.546;2023-03-07T09:52:14;97489.25;;;15.80;72.58
20023;BME280;10172;42.054;24.546;2023-03-07T09:55:05;97491.91;;;15.98;72.72
20023;BME280;10172;42.054;24.546;2023-03-07T09:57:45;97499.69;;;15.66;71.99
20023;BME280;10172;42.054;24.546;2023-03-07T10:00:36;97495.50;;;16.06;72.59
20023;BME280;10172;42.054;24.546;2023-03-07T10:08:01;97471.72;;;15.68;68.94
20023;BME280;10172;42.054;24.546;2023-03-07T10:10:40;97471.84;;;16.53;68.16
20023;BME280;10172;42.054;24.546;2023-03-07T10:15:53;97450.63;;;15.47;71.09
20023;BME280;10172;42.054;24.546;2023-03-07T10:26:34;97447.81;;;16.86;66.10
20023;BME280;10172;42.054;24.546;2023-03-07T10:29:13;97424.63;;;16.85;65.19
20023;BME280;10172;42.054;24.546;2023-03-07T10:31:42;97428.19;;;17.01;64.96
20023;BME280;10172;42.054;24.546;2023-03-07T10:34:26;97418.94;;;16.96;65.43
20023;BME280;10172;42.054;24.546;2023-03-07T10:36:56;97409.28;;;17.19;66.23
20023;BME280;10172;42.054;24.546;2023-03-07T10:41:50;97406.66;;;16.85;66.89
20023;BME280;10172;42.054;24.546;2023-03-07T10:44:17;97417.25;;;16.79;67.31
20023;BME280;10172;42.054;24.546;2023-03-07T10:46:45;97406.59;;;17.27;65.13
20023;BME280;10172;42.054;24.546;2023-03-07T10:49:17;97401.22;;;17.43;64.15
20023;BME280;10172;42.054;24.546;2023-03-07T10:54:51;97386.09;;;17.50;63.08
20023;BME280;10172;42.054;24.546;2023-03-07T10:57:17;97377.34;;;17.00;65.17
20023;BME280;10172;42.054;24.546;2023-03-07T10:59:50;97381.88;;;17.15;65.53
20023;BME280;10172;42.054;24.546;2023-03-07T11:02:41;97380.03;;;17.00;64.59
20023;BME280;10172;42.054;24.546;2023-03-07T11:05:32;97377.66;;;16.97;65.06
20023;BME280;10172;42.054;24.546;2023-03-07T11:07:58;97361.06;;;17.25;63.24
20023;BME280;10172;42.054;24.546;2023-03-07T11:12:56;97336.69;;;17.51;62.54
20023;BME280;10172;42.054;24.546;2023-03-07T11:15:22;97352.94;;;16.85;64.56
20023;BME280;10172;42.054;24.546;2023-03-07T11:17:50;97336.53;;;17.45;64.84
20023;BME280;10172;42.054;24.546;2023-03-07T11:20:23;97337.69;;;17.50;62.05
20023;BME280;10172;42.054;24.546;2023-03-07T11:23:27;97318.53;;;16.81;64.75
20023;BME280;10172;42.054;24.546;2023-03-07T11:25:54;97312.50;;;16.87;66.62
20023;BME280;10172;42.054;24.546;2023-03-07T11:28:32;97311.13;;;17.79;62.47
20023;BME280;10172;42.054;24.546;2023-03-07T11:36:26;97295.66;;;17.73;62.23
20023;BME280;10172;42.054;24.546;2023-03-07T11:41:54;97283.94;;;16.69;63.89
20023;BME280;10172;42.054;24.546;2023-03-07T11:44:48;97271.16;;;17.44;61.22
20023;BME280;10172;42.054;24.546;2023-03-07T11:47:36;97278.06;;;17.30;60.80
20023;BME280;10172;42.054;24.546;2023-03-07T11:50:21;97280.38;;;17.74;60.88
20023;BME280;10172;42.054;24.546;2023-03-07T11:53:19;97274.19;;;17.41;59.82
20023;BME280;10172;42.054;24.546;2023-03-07T12:23:34;97223.41;;;17.70;54.57
20023;BME280;10172;42.054;24.546;2023-03-07T12:26:07;97230.19;;;17.42;54.35
20023;BME280;10172;42.054;24.546;2023-03-07T12:28:43;97219.09;;;17.53;54.13
20023;BME280;10172;42.054;24.546;2023-03-07T12:31:23;97221.91;;;17.68;54.40
20023;BME280;10172;42.054;24.546;2023-03-07T12:39:51;97214.22;;;17.96;53.46
20023;BME280;10172;42.054;24.546;2023-03-07T12:42:41;97215.47;;;17.77;53.98
20023;BME280;10172;42.054;24.546;2023-03-07T12:45:20;97216.63;;;17.82;52.74
20023;BME280;10172;42.054;24.546;2023-03-07T12:50:19;97205.16;;;17.33;54.54
20023;BME280;10172;42.054;24.546;2023-03-07T12:52:52;97200.94;;;17.55;54.47
20023;BME280;10172;42.054;24.546;2023-03-07T12:56:11;97199.09;;;17.95;54.28
20023;BME280;10172;42.054;24.546;2023-03-07T13:00:49;97196.13;;;18.12;52.46
20023;BME280;10172;42.054;24.546;2023-03-07T13:03:28;97194.63;;;18.40;53.08
20023;BME280;10172;42.054;24.546;2023-03-07T13:05:58;97192.34;;;17.99;54.36
20023;BME280;10172;42.054;24.546;2023-03-07T13:08:24;97188.47;;;18.01;54.79
20023;BME280;10172;42.054;24.546;2023-03-07T13:10:50;97197.69;;;17.76;55.49
20023;BME280;10172;42.054;24.546;2023-03-07T13:21:53;97205.97;;;17.50;55.68
20023;BME280;10172;42.054;24.546;2023-03-07T13:24:34;97209.84;;;17.48;55.10
20023;BME280;10172;42.054;24.546;2023-03-07T13:27:13;97198.94;;;17.33;55.73
20023;BME280;10172;42.054;24.546;2023-03-07T13:38:00;97202.31;;;18.21;52.90
20023;BME280;10172;42.054;24.546;2023-03-07T14:04:23;97154.59;;;18.37;45.03
20023;BME280;10172;42.054;24.546;2023-03-07T14:07:01;97158.34;;;18.59;46.68
20023;BME280;10172;42.054;24.546;2023-03-07T14:09:41;97141.97;;;18.38;46.04
20023;BME280;10172;42.054;24.546;2023-03-07T14:15:18;97157.56;;;18.20;44.47
20023;BME280;10172;42.054;24.546;2023-03-07T14:23:19;97134.84;;;18.22;45.71
20023;BME280;10172;42.054;24.546;2023-03-07T14:25:50;97135.53;;;17.93;45.11
20023;BME280;10172;42.054;24.546;2023-03-07T14:28:22;97134.84;;;18.22;45.12
20023;BME280;10172;42.054;24.546;2023-03-07T14:30:56;97129.34;;;18.38;45.36
20023;BME280;10172;42.054;24.546;2023-03-07T14:33:33;97129.44;;;18.53;45.81
20023;BME280;10172;42.054;24.546;2023-03-07T14:36:01;97138.28;;;18.62;45.96
20023;BME280;10172;42.054;24.546;2023-03-07T14:38:27;97136.22;;;18.49;46.70
20023;BME280;10172;42.054;24.546;2023-03-07T14:41:23;97137.31;;;18.32;46.88
20023;BME280;10172;42.054;24.546;2023-03-07T14:44:21;97143.16;;;18.13;47.05
20023;BME280;10172;42.054;24.546;2023-03-07T14:49:45;97138.59;;;16.48;52.96
20023;BME280;10172;42.054;24.546;2023-03-07T14:52:15;97141.28;;;16.24;55.98
20023;BME280;10172;42.054;24.546;2023-03-07T14:54:44;97151.09;;;15.91;56.59
20023;BME280;10172;42.054;24.546;2023-03-07T14:57:28;97153.78;;;15.91;57.68
20023;BME280;10172;42.054;24.546;2023-03-07T15:02:46;97148.13;;;16.02;57.86
20023;BME280;10172;42.054;24.546;2023-03-07T15:07:48;97152.72;;;16.66;58.29
20023;BME280;10172;42.054;24.546;2023-03-07T15:12:50;97144.28;;;16.29;59.10
20023;BME280;10172;42.054;24.546;2023-03-07T15:15:28;97150.19;;;16.41;59.72
20023;BME280;10172;42.054;24.546;2023-03-07T15:17:58;97145.94;;;16.14;59.57
20023;BME280;10172;42.054;24.546;2023-03-07T15:20:29;97145.63;;;16.82;59.63
20023;BME280;10172;42.054;24.546;2023-03-07T15:23:05;97157.03;;;17.00;59.10
20023;BME280;10172;42.054;24.546;2023-03-07T15:25:32;97158.06;;;17.62;56.52
20023;BME280;10172;42.054;24.546;2023-03-07T15:28:18;97156.88;;;16.85;57.26